Time;durP1;ratioP1;P1;durP2;ratioP2;P2;SDS_P1;SDS_P2;PMS_P1;PMS_P2;Temp;Humidity;BMP_temperature;BMP_pressure;BME280_temperature;BME280_humidity;BME280_pressure;Samples;Min_cycle;Max_cycle;Signal;HPM_P1;HPM_P2
2023/10/25 00:01:42;;;;;;;24.20;5.20;;;17.90;99.90;;;;;;5072687;28;20025;-80
2023/10/25 00:04:08;;;;;;;19.92;4.85;;;17.90;99.90;;;;;;5072566;28;20028;-81
2023/10/25 00:06:37;;;;;;;16.17;4.85;;;17.90;99.90;;;;;;5072465;28;20021;-81
2023/10/25 00:09:04;;;;;;;16.27;4.45;;;17.90;99.90;;;;;;5072852;28;20023;-81
2023/10/25 00:11:40;;;;;;;17.85;4.15;;;17.90;99.90;;;;;;5072583;28;20100;-80
2023/10/25 00:14:08;;;;;;;24.92;4.95;;;17.90;99.90;;;;;;5072412;28;20101;-80
2023/10/25 00:16:35;;;;;;;19.65;3.97;;;17.90;99.90;;;;;;5073004;28;20016;-82
2023/10/25 00:19:01;;;;;;;13.40;4.32;;;17.90;99.90;;;;;;5076507;28;20040;-81
2023/10/25 00:21:53;;;;;;;12.07;4.18;;;17.90;99.90;;;;;;5076488;28;20021;-81
2023/10/25 00:24:19;;;;;;;23.35;6.05;;;18.00;99.90;;;;;;5058716;28;20403;-81
2023/10/25 00:26:45;;;;;;;17.40;5.40;;;17.90;99.90;;;;;;5076343;28;20024;-80
2023/10/25 00:29:11;;;;;;;19.33;5.38;;;17.90;99.90;;;;;;5076451;28;20028;-80
2023/10/25 00:31:40;;;;;;;20.63;6.00;;;17.90;99.90;;;;;;5076304;28;20032;-80
2023/10/25 00:34:09;;;;;;;15.85;5.82;;;17.90;99.90;;;;;;5075735;28;20106;-80
2023/10/25 00:36:35;;;;;;;14.05;5.30;;;17.90;99.90;;;;;;5076244;28;20024;-80
2023/10/25 00:39:02;;;;;;;18.95;7.03;;;17.90;99.90;;;;;;5076090;28;20021;-80
2023/10/25 00:41:28;;;;;;;12.35;5.63;;;17.90;99.90;;;;;;5075798;28;20077;-80
2023/10/25 00:43:54;;;;;;;20.70;6.35;;;17.90;99.90;;;;;;5057976;28;20020;-80
2023/10/25 00:46:25;;;;;;;15.27;6.13;;;17.90;99.90;;;;;;5076011;28;20024;-80
2023/10/25 00:48:54;;;;;;;14.30;6.07;;;17.90;99.90;;;;;;5076144;28;20020;-80
2023/10/25 00:51:22;;;;;;;21.92;6.10;;;17.90;99.90;;;;;;5076085;28;20027;-80
2023/10/25 00:53:53;;;;;;;24.48;6.55;;;17.90;99.90;;;;;;5075538;28;20021;-80
2023/10/25 00:56:23;;;;;;;16.52;6.93;;;17.90;99.90;;;;;;5075881;28;20020;-81
2023/10/25 00:58:54;;;;;;;13.65;5.80;;;17.90;99.90;;;;;;5073721;28;20031;-80
2023/10/25 01:01:25;;;;;;;16.20;6.03;;;17.90;99.90;;;;;;5073003;28;20037;-81
2023/10/25 01:03:52;;;;;;;15.70;6.73;;;17.90;99.90;;;;;;5073155;28;20035;-80
2023/10/25 01:06:22;;;;;;;17.05;6.22;;;17.90;99.90;;;;;;5075535;28;20606;-81
2023/10/25 01:08:48;;;;;;;21.63;6.38;;;17.90;99.90;;;;;;5075486;28;20051;-80
2023/10/25 01:11:15;;;;;;;21.13;6.15;;;17.90;99.90;;;;;;5075372;28;20376;-80
2023/10/25 01:13:41;;;;;;;18.00;6.47;;;17.90;99.90;;;;;;5075042;28;20082;-80
2023/10/25 01:16:07;;;;;;;21.60;6.43;;;17.80;99.90;;;;;;5057133;28;20039;-80
2023/10/25 01:18:33;;;;;;;14.52;6.00;;;17.80;99.90;;;;;;5075557;28;20044;-79
2023/10/25 01:20:59;;;;;;;15.40;6.28;;;17.90;99.90;;;;;;5075401;28;20028;-80
2023/10/25 01:23:25;;;;;;;14.98;6.00;;;17.80;99.90;;;;;;5075292;28;20028;-81
2023/10/25 01:25:51;;;;;;;15.23;5.93;;;17.80;99.90;;;;;;5075220;28;20035;-80
2023/10/25 01:28:17;;;;;;;16.27;6.32;;;17.90;99.90;;;;;;5074867;28;20415;-80
2023/10/25 01:30:43;;;;;;;14.35;5.80;;;17.90;99.90;;;;;;5075172;28;20099;-80
2023/10/25 01:33:09;;;;;;;14.82;5.78;;;17.90;99.90;;;;;;5074999;28;20012;-81
2023/10/25 01:35:35;;;;;;;16.70;5.80;;;17.80;99.90;;;;;;5074760;28;20036;-81
2023/10/25 01:38:02;;;;;;;13.50;6.05;;;17.90;99.90;;;;;;5075136;28;20048;-80
2023/10/25 01:40:28;;;;;;;16.90;5.82;;;17.80;99.90;;;;;;5074892;28;20021;-81
2023/10/25 01:42:54;;;;;;;16.45;5.50;;;17.80;99.90;;;;;;5074810;28;20163;-80
2023/10/25 01:45:23;;;;;;;13.05;6.03;;;17.90;99.90;;;;;;5075113;28;20028;-80
2023/10/25 01:47:52;;;;;;;13.82;5.85;;;17.90;99.90;;;;;;5057079;28;20033;-81
2023/10/25 01:50:19;;;;;;;17.02;5.30;;;17.90;99.90;;;;;;5075017;28;20024;-81
2023/10/25 01:52:45;;;;;;;15.95;5.72;;;17.90;99.90;;;;;;5074799;28;20016;-81
2023/10/25 01:55:20;;;;;;;11.10;5.30;;;17.80;99.90;;;;;;5074828;28;20036;-81
2023/10/25 01:57:46;;;;;;;17.83;6.57;;;17.90;99.90;;;;;;5074420;28;20380;-80
2023/10/25 02:00:12;;;;;;;14.45;5.53;;;17.80;99.90;;;;;;5074117;28;20486;-80
2023/10/25 02:02:41;;;;;;;21.23;5.95;;;17.80;99.90;;;;;;5074264;28;20032;-80
2023/10/25 02:05:08;;;;;;;15.65;5.13;;;17.80;99.90;;;;;;5074461;28;20043;-81
2023/10/25 02:07:34;;;;;;;14.20;5.15;;;17.80;99.90;;;;;;5056547;28;20071;-81
2023/10/25 02:10:00;;;;;;;14.25;4.75;;;17.80;99.90;;;;;;5056685;28;20025;-80
2023/10/25 02:12:26;;;;;;;14.77;4.90;;;17.80;99.90;;;;;;5074178;28;20108;-80
2023/10/25 02:14:52;;;;;;;10.73;4.55;;;17.80;99.90;;;;;;5056257;28;20036;-81
2023/10/25 02:17:18;;;;;;;20.27;5.63;;;17.70;99.90;;;;;;5074534;28;20048;-81
2023/10/25 02:19:45;;;;;;;13.63;4.88;;;17.80;99.90;;;;;;5074579;28;20450;-81
2023/10/25 02:22:13;;;;;;;14.27;4.60;;;17.80;99.90;;;;;;5074483;28;20024;-80
2023/10/25 02:24:39;;;;;;;9.05;4.22;;;17.70;99.90;;;;;;5074389;28;20052;-81
2023/10/25 02:27:05;;;;;;;11.68;4.68;;;17.80;99.90;;;;;;5074083;28;20060;-80
2023/10/25 02:29:31;;;;;;;14.07;4.93;;;17.80;99.90;;;;;;5074141;28;20025;-80
2023/10/25 02:31:58;;;;;;;14.45;4.75;;;17.80;99.90;;;;;;5074242;28;20039;-80
2023/10/25 02:34:24;;;;;;;12.60;4.93;;;17.70;99.90;;;;;;5073691;28;20048;-80
2023/10/25 02:36:50;;;;;;;12.77;4.82;;;17.70;99.90;;;;;;5073958;28;20039;-80
2023/10/25 02:39:17;;;;;;;14.88;4.53;;;17.70;99.90;;;;;;5073428;28;20415;-80
2023/10/25 02:41:43;;;;;;;19.67;4.82;;;17.70;99.90;;;;;;5073187;28;20461;-80
2023/10/25 02:44:09;;;;;;;12.23;4.93;;;17.70;99.90;;;;;;5084700;28;20116;-81
2023/10/25 02:46:35;;;;;;;10.30;3.85;;;17.70;99.90;;;;;;5094222;28;20111;-80
2023/10/25 02:49:01;;;;;;;11.43;3.50;;;17.70;99.90;;;;;;5093958;28;20059;-79
2023/10/25 02:51:30;;;;;;;10.80;3.95;;;17.70;99.90;;;;;;5093527;28;20020;-81
2023/10/25 02:53:56;;;;;;;7.47;3.40;;;17.70;99.90;;;;;;5093818;28;20555;-81
2023/10/25 02:56:22;;;;;;;14.10;3.60;;;17.70;99.90;;;;;;5093510;28;20365;-80
2023/10/25 02:58:48;;;;;;;9.13;2.97;;;17.70;99.90;;;;;;5093803;28;20472;-80
2023/10/25 03:01:24;;;;;;;10.65;3.00;;;17.80;99.90;;;;;;5075710;28;20395;-80
2023/10/25 03:03:51;;;;;;;8.05;2.80;;;17.80;99.90;;;;;;5093430;28;20497;-80
2023/10/25 03:06:17;;;;;;;5.88;2.72;;;17.80;99.90;;;;;;5075245;28;20073;-81
2023/10/25 03:08:47;;;;;;;9.65;2.67;;;17.80;99.90;;;;;;5093680;28;20043;-80
2023/10/25 03:11:19;;;;;;;11.70;3.50;;;17.80;99.90;;;;;;5093747;28;20426;-80
2023/10/25 03:13:45;;;;;;;11.82;2.72;;;17.80;99.90;;;;;;5075067;28;20408;-80
2023/10/25 03:16:19;;;;;;;7.50;3.00;;;17.80;99.90;;;;;;5093316;28;20455;-80
2023/10/25 03:18:45;;;;;;;13.63;3.72;;;17.80;99.90;;;;;;5075539;28;20023;-80
2023/10/25 03:21:11;;;;;;;9.95;2.85;;;17.80;99.90;;;;;;5093560;28;20032;-81
2023/10/25 03:23:37;;;;;;;9.70;3.63;;;17.90;99.90;;;;;;5075284;28;20031;-80
2023/10/25 03:26:08;;;;;;;9.95;3.15;;;17.90;99.90;;;;;;5093334;28;20483;-80
2023/10/25 03:28:34;;;;;;;11.05;2.90;;;17.90;99.90;;;;;;5093434;28;20016;-80
2023/10/25 03:31:10;;;;;;;8.07;2.78;;;17.90;99.90;;;;;;5093447;28;20031;-80
2023/10/25 03:33:36;;;;;;;7.00;3.08;;;17.90;99.90;;;;;;5093187;28;20397;-80
2023/10/25 03:36:02;;;;;;;6.30;2.75;;;17.90;99.90;;;;;;5093256;28;20059;-80
2023/10/25 03:38:28;;;;;;;12.90;3.08;;;17.90;99.90;;;;;;5093464;28;20439;-80
2023/10/25 03:41:07;;;;;;;9.10;2.80;;;17.90;99.90;;;;;;5093090;28;20103;-81
2023/10/25 03:43:35;;;;;;;8.73;2.45;;;17.80;99.90;;;;;;5093178;28;20070;-80
2023/10/25 03:46:05;;;;;;;13.88;2.88;;;17.90;99.90;;;;;;5092916;28;20020;-80
2023/10/25 03:48:32;;;;;;;12.63;3.13;;;17.90;99.90;;;;;;5093029;28;20028;-81
2023/10/25 03:51:04;;;;;;;6.18;3.15;;;17.90;99.90;;;;;;5092663;28;20372;-81
2023/10/25 03:53:30;;;;;;;4.20;2.65;;;17.90;99.90;;;;;;5092718;28;20030;-81
2023/10/25 03:55:59;;;;;;;9.27;2.65;;;17.90;99.90;;;;;;5092762;28;20047;-81
2023/10/25 03:58:25;;;;;;;7.03;3.00;;;17.90;99.90;;;;;;5092928;28;20458;-80
2023/10/25 04:01:01;;;;;;;9.55;3.22;;;17.90;99.90;;;;;;5092763;28;20032;-81
2023/10/25 04:03:33;;;;;;;12.77;3.17;;;17.90;99.90;;;;;;5093080;28;20191;-81
2023/10/25 04:05:59;;;;;;;9.25;3.15;;;17.90;99.90;;;;;;5092888;28;20044;-81
2023/10/25 04:08:25;;;;;;;10.25;2.40;;;17.80;99.90;;;;;;5092965;28;20368;-81
2023/10/25 04:10:52;;;;;;;5.90;2.60;;;17.80;99.90;;;;;;5093044;28;20016;-81
2023/10/25 04:13:19;;;;;;;6.93;2.80;;;17.90;99.90;;;;;;5092648;28;20545;-81
2023/10/25 04:16:00;;;;;;;8.05;2.53;;;17.90;99.90;;;;;;5092808;28;20395;-82
2023/10/25 04:18:28;;;;;;;15.32;3.88;;;17.90;99.90;;;;;;5092937;28;20530;-81
2023/10/25 04:20:55;;;;;;;6.45;2.70;;;17.90;99.90;;;;;;5074890;28;20106;-81
2023/10/25 04:23:23;;;;;;;7.45;2.67;;;17.90;99.90;;;;;;5092807;28;20032;-80
2023/10/25 04:25:49;;;;;;;7.03;3.33;;;17.90;99.90;;;;;;5092423;28;20027;-81
2023/10/25 04:28:17;;;;;;;6.28;2.53;;;17.90;99.90;;;;;;5093160;28;20415;-81
2023/10/25 04:30:46;;;;;;;8.18;2.63;;;17.90;99.90;;;;;;5092882;28;20028;-81
2023/10/25 04:33:15;;;;;;;10.73;2.58;;;17.90;99.90;;;;;;5092433;28;20089;-81
2023/10/25 04:35:41;;;;;;;7.90;2.58;;;17.90;99.90;;;;;;5092223;28;20442;-81
2023/10/25 04:38:07;;;;;;;5.80;2.85;;;17.90;99.90;;;;;;5092701;28;20468;-81
2023/10/25 04:40:36;;;;;;;5.78;2.90;;;17.90;99.90;;;;;;5072399;28;20028;-81
2023/10/25 04:43:02;;;;;;;8.95;2.83;;;17.90;99.90;;;;;;5072238;28;20096;-81
2023/10/25 04:45:39;;;;;;;12.70;2.75;;;17.90;99.90;;;;;;5072170;28;20471;-81
2023/10/25 04:48:05;;;;;;;10.20;2.78;;;17.80;99.90;;;;;;5072071;28;20078;-81
2023/10/25 04:50:34;;;;;;;6.72;2.58;;;17.80;99.90;;;;;;5072077;28;20028;-80
2023/10/25 04:53:03;;;;;;;6.05;2.30;;;17.80;99.90;;;;;;5071957;28;20025;-81
2023/10/25 04:55:36;;;;;;;11.27;2.65;;;17.80;99.90;;;;;;5072160;28;20044;-81
2023/10/25 04:58:05;;;;;;;5.05;2.30;;;17.80;99.90;;;;;;5072012;28;20028;-81
2023/10/25 05:00:31;;;;;;;7.70;2.63;;;17.80;99.90;;;;;;5072251;28;20416;-81
2023/10/25 05:02:58;;;;;;;6.35;2.75;;;17.80;99.90;;;;;;5072213;28;20029;-81
2023/10/25 05:05:24;;;;;;;10.07;2.67;;;17.80;99.90;;;;;;5075528;28;20387;-81
2023/10/25 05:07:56;;;;;;;8.38;2.70;;;17.80;99.90;;;;;;5075665;28;20055;-81
2023/10/25 05:10:25;;;;;;;7.75;2.63;;;17.80;99.90;;;;;;5075990;28;20036;-81
2023/10/25 05:12:52;;;;;;;8.68;2.92;;;17.80;99.90;;;;;;5075662;28;20027;-80
2023/10/25 05:15:23;;;;;;;7.80;2.58;;;17.70;99.90;;;;;;5075483;28;20076;-81
2023/10/25 05:17:50;;;;;;;7.50;2.30;;;17.80;99.90;;;;;;5075274;28;20413;-80
2023/10/25 05:20:19;;;;;;;10.55;3.40;;;17.80;99.90;;;;;;5075518;28;20017;-81
2023/10/25 05:22:50;;;;;;;5.35;2.47;;;17.80;99.90;;;;;;5075243;28;20079;-81
2023/10/25 05:25:20;;;;;;;10.30;2.78;;;17.70;99.90;;;;;;5057831;28;20027;-81
2023/10/25 05:27:52;;;;;;;9.93;2.90;;;17.70;99.90;;;;;;5075141;28;20113;-80
2023/10/25 05:30:21;;;;;;;10.93;2.72;;;17.70;99.90;;;;;;5074957;28;20029;-81
2023/10/25 05:32:49;;;;;;;8.48;2.75;;;17.70;99.90;;;;;;5075309;28;20368;-81
2023/10/25 05:35:20;;;;;;;6.68;2.70;;;17.70;99.90;;;;;;5074812;28;20508;-80
2023/10/25 05:37:46;;;;;;;7.73;3.10;;;17.70;99.90;;;;;;5075250;28;20025;-80
2023/10/25 05:40:13;;;;;;;7.80;3.10;;;17.70;99.90;;;;;;5074778;28;20027;-82
2023/10/25 05:42:49;;;;;;;6.43;2.80;;;17.60;99.90;;;;;;5075066;28;20399;-81
2023/10/25 05:45:18;;;;;;;9.07;3.55;;;17.60;99.90;;;;;;5075010;28;20060;-81
2023/10/25 05:47:44;;;;;;;8.75;3.30;;;17.60;99.90;;;;;;5074784;28;20129;-82
2023/10/25 05:50:14;;;;;;;9.63;3.17;;;17.60;99.90;;;;;;5082674;28;20375;-81
2023/10/25 05:52:45;;;;;;;10.48;3.25;;;17.60;99.90;;;;;;5080726;28;20391;-81
2023/10/25 05:55:16;;;;;;;10.85;3.65;;;17.60;99.90;;;;;;5083270;28;20119;-82
2023/10/25 05:57:42;;;;;;;12.52;3.47;;;17.60;99.90;;;;;;5081251;28;20017;-82
2023/10/25 06:00:08;;;;;;;11.65;2.72;;;17.60;99.90;;;;;;5083198;28;20092;-81
2023/10/25 06:02:35;;;;;;;11.98;3.10;;;17.60;99.90;;;;;;5075137;28;20474;-82
2023/10/25 06:05:01;;;;;;;8.45;2.88;;;17.60;99.90;;;;;;5074575;28;20420;-82
2023/10/25 06:07:30;;;;;;;9.35;3.10;;;17.60;99.90;;;;;;5074460;28;20480;-82
2023/10/25 06:09:57;;;;;;;11.63;3.30;;;17.60;99.90;;;;;;5074504;28;20495;-82
2023/10/25 06:12:26;;;;;;;7.28;2.97;;;17.60;99.90;;;;;;5074218;28;20020;-81
2023/10/25 06:14:51;;;;;;;13.48;3.65;;;17.60;99.90;;;;;;5074389;28;20051;-84
2023/10/25 06:17:17;;;;;;;13.02;3.83;;;17.60;99.90;;;;;;5056874;28;20072;-82
2023/10/25 06:19:43;;;;;;;13.18;3.63;;;17.60;99.90;;;;;;5056569;28;20036;-82
2023/10/25 06:22:09;;;;;;;7.97;3.25;;;17.60;99.90;;;;;;5074473;28;20081;-83
2023/10/25 06:24:35;;;;;;;8.40;2.63;;;17.60;99.90;;;;;;5055367;28;20074;-83
2023/10/25 06:27:01;;;;;;;8.65;3.05;;;17.60;99.90;;;;;;5072981;28;20027;-82
2023/10/25 06:29:27;;;;;;;9.52;3.00;;;17.60;99.90;;;;;;5073196;28;20107;-82
2023/10/25 06:31:53;;;;;;;10.43;3.03;;;17.60;99.90;;;;;;5070689;28;20035;-83
2023/10/25 06:34:20;;;;;;;7.07;2.40;;;17.60;99.90;;;;;;5078881;28;20508;-83
2023/10/25 06:36:46;;;;;;;8.45;2.90;;;17.70;99.90;;;;;;5079889;28;20059;-82
2023/10/25 06:39:15;;;;;;;5.60;2.50;;;17.60;99.90;;;;;;5081713;28;20090;-82
2023/10/25 06:41:42;;;;;;;8.07;2.30;;;17.60;99.90;;;;;;5059908;28;20465;-82
2023/10/25 06:44:09;;;;;;;11.48;2.78;;;17.70;99.90;;;;;;5062545;28;20683;-83
2023/10/25 06:46:35;;;;;;;9.25;2.22;;;17.70;99.90;;;;;;5073686;28;20544;-82
2023/10/25 06:49:01;;;;;;;12.35;2.72;;;17.70;99.90;;;;;;5074088;28;20384;-82
2023/10/25 06:51:27;;;;;;;10.20;2.88;;;17.70;99.90;;;;;;5073999;28;20388;-82
2023/10/25 06:53:54;;;;;;;11.27;3.13;;;17.70;99.90;;;;;;5055969;28;20025;-81
2023/10/25 06:56:23;;;;;;;11.10;2.50;;;17.70;99.90;;;;;;5073969;28;20020;-88
2023/10/25 06:58:50;;;;;;;6.60;2.42;;;17.70;99.90;;;;;;5074045;28;20028;-81
2023/10/25 07:01:18;;;;;;;9.45;2.80;;;17.70;99.90;;;;;;5073874;28;20446;-82
2023/10/25 07:03:49;;;;;;;11.15;3.33;;;17.80;99.90;;;;;;5073940;28;20027;-80
2023/10/25 07:06:18;;;;;;;18.25;2.95;;;17.80;99.90;;;;;;5073595;28;20027;-84
2023/10/25 07:08:45;;;;;;;8.82;2.40;;;17.80;99.90;;;;;;5074182;28;20094;-84
2023/10/25 07:11:11;;;;;;;10.02;2.78;;;17.80;99.90;;;;;;5073835;28;20387;-80
2023/10/25 07:13:37;;;;;;;10.68;3.47;;;17.80;99.90;;;;;;5073417;28;20104;-82
2023/10/25 07:16:04;;;;;;;11.93;2.72;;;17.80;99.90;;;;;;5073677;28;20107;-86
2023/10/25 07:18:29;;;;;;;17.40;2.92;;;17.90;99.90;;;;;;5055716;28;20407;-83
2023/10/25 07:20:56;;;;;;;11.55;3.42;;;17.90;99.90;;;;;;5073568;28;20461;-85
2023/10/25 07:23:22;;;;;;;14.18;2.80;;;17.90;99.90;;;;;;5073881;28;20016;-84
2023/10/25 07:25:48;;;;;;;15.02;2.97;;;17.90;99.90;;;;;;5055495;28;20028;-84
2023/10/25 07:28:16;;;;;;;13.40;3.60;;;17.90;99.90;;;;;;5073324;28;20112;-84
2023/10/25 07:30:45;;;;;;;9.43;3.13;;;18.00;99.90;;;;;;5073342;28;20444;-85
2023/10/25 07:33:12;;;;;;;8.00;2.75;;;18.00;99.90;;;;;;5073107;28;20028;-84
2023/10/25 07:35:38;;;;;;;8.18;2.55;;;18.00;99.90;;;;;;5073578;28;20395;-84
2023/10/25 07:38:04;;;;;;;11.52;3.25;;;18.00;99.90;;;;;;5073266;28;20021;-85
2023/10/25 07:40:30;;;;;;;11.95;3.13;;;18.00;99.90;;;;;;5073502;28;20024;-84
2023/10/25 07:42:56;;;;;;;10.13;3.08;;;18.00;99.90;;;;;;5055475;28;20384;-84
2023/10/25 07:45:22;;;;;;;6.15;2.63;;;18.10;99.90;;;;;;5073380;28;20099;-84
2023/10/25 07:47:49;;;;;;;11.77;2.92;;;18.10;99.90;;;;;;5072972;28;20490;-82
2023/10/25 07:50:18;;;;;;;9.00;2.90;;;18.10;99.90;;;;;;5072938;28;20116;-84
2023/10/25 07:52:49;;;;;;;8.18;2.55;;;18.10;99.90;;;;;;5073401;28;20318;-84
2023/10/25 07:55:15;;;;;;;10.63;2.60;;;18.10;99.90;;;;;;5073150;28;20033;-84
2023/10/25 07:57:41;;;;;;;12.73;3.20;;;18.10;99.90;;;;;;5073364;28;20021;-84
2023/10/25 08:00:09;;;;;;;8.32;3.03;;;18.10;99.90;;;;;;5073063;28;20090;-84
2023/10/25 08:02:36;;;;;;;8.30;2.70;;;18.20;99.90;;;;;;5072757;28;20426;-84
2023/10/25 08:05:02;;;;;;;6.78;2.50;;;18.20;99.90;;;;;;5055167;28;20116;-83
2023/10/25 08:07:29;;;;;;;8.75;2.70;;;18.10;99.90;;;;;;5073176;28;20445;-84
2023/10/25 08:09:55;;;;;;;7.50;2.55;;;18.20;99.90;;;;;;5073357;28;20048;-84
2023/10/25 08:12:21;;;;;;;9.23;2.85;;;18.20;99.90;;;;;;5073005;28;20052;-84
2023/10/25 08:14:47;;;;;;;10.75;2.95;;;18.30;99.90;;;;;;5072425;28;20314;-85
2023/10/25 08:17:16;;;;;;;8.07;2.42;;;18.30;99.90;;;;;;5072992;28;20091;-84
2023/10/25 08:19:41;;;;;;;9.23;2.90;;;18.30;99.90;;;;;;5073131;28;20427;-84
2023/10/25 08:22:08;;;;;;;12.63;2.83;;;18.30;99.90;;;;;;5073054;28;20025;-79
2023/10/25 08:24:34;;;;;;;12.45;2.95;;;18.20;99.90;;;;;;5072910;28;20024;-80
2023/10/25 08:27:00;;;;;;;14.23;2.95;;;18.20;99.90;;;;;;5073268;28;20052;-84
2023/10/25 08:29:29;;;;;;;8.85;2.45;;;18.20;99.90;;;;;;5072926;28;20025;-79
2023/10/25 08:31:55;;;;;;;8.45;2.78;;;18.20;99.90;;;;;;5072917;28;20036;-77
2023/10/25 08:34:21;;;;;;;9.63;2.95;;;18.30;99.90;;;;;;5072484;28;20052;-85
2023/10/25 08:36:49;;;;;;;7.35;2.83;;;18.20;99.90;;;;;;5072828;28;20032;-84
2023/10/25 08:39:15;;;;;;;9.60;2.70;;;18.20;99.90;;;;;;5074878;28;20502;-81
2023/10/25 08:41:42;;;;;;;7.75;2.33;;;18.30;99.90;;;;;;5076465;28;20115;-82
2023/10/25 08:44:08;;;;;;;11.13;2.47;;;18.20;99.90;;;;;;5058484;28;20488;-83
2023/10/25 08:46:35;;;;;;;7.57;2.67;;;18.30;99.90;;;;;;5075205;28;20488;-84
2023/10/25 08:49:01;;;;;;;7.35;2.17;;;18.30;99.90;;;;;;5076600;28;20362;-83
2023/10/25 08:51:27;;;;;;;10.18;3.15;;;18.30;99.90;;;;;;5076295;28;20487;-83
2023/10/25 08:53:58;;;;;;;5.75;2.30;;;18.30;99.90;;;;;;5076411;28;20384;-83
2023/10/25 08:56:25;;;;;;;13.37;3.00;;;18.30;99.90;;;;;;5076467;28;20366;-83
2023/10/25 08:58:51;;;;;;;13.20;2.60;;;18.40;99.90;;;;;;5076311;28;20283;-83
2023/10/25 09:01:18;;;;;;;8.23;2.72;;;18.40;99.90;;;;;;5076386;28;20020;-83
2023/10/25 09:03:44;;;;;;;10.63;2.67;;;18.40;99.90;;;;;;5076245;28;20021;-84
2023/10/25 09:06:21;;;;;;;14.13;3.25;;;18.40;99.90;;;;;;5076203;28;20039;-82
2023/10/25 09:08:57;;;;;;;8.52;2.40;;;18.40;99.90;;;;;;5075844;28;20021;-83
2023/10/25 09:11:23;;;;;;;7.13;2.38;;;18.40;99.90;;;;;;5075943;28;20017;-82
2023/10/25 09:13:56;;;;;;;7.13;2.05;;;18.40;99.90;;;;;;5075521;28;20051;-82
2023/10/25 09:16:27;;;;;;;6.57;2.42;;;18.40;99.90;;;;;;5057563;28;20079;-83
2023/10/25 09:18:52;;;;;;;8.05;2.25;;;18.40;99.90;;;;;;5075485;28;20020;-83
2023/10/25 09:21:27;;;;;;;8.10;2.30;;;18.40;99.90;;;;;;5075393;28;20058;-82
2023/10/25 09:23:59;;;;;;;9.30;2.97;;;18.40;99.90;;;;;;5075478;28;20017;-81
2023/10/25 09:26:32;;;;;;;9.50;3.45;;;18.40;99.90;;;;;;5075331;28;20441;-83
2023/10/25 09:28:58;;;;;;;8.07;2.40;;;18.40;99.90;;;;;;5075559;28;20020;-82
2023/10/25 09:31:27;;;;;;;8.98;2.67;;;18.40;99.90;;;;;;5075633;28;20028;-81
2023/10/25 09:33:53;;;;;;;8.93;2.25;;;18.40;99.90;;;;;;5075301;28;20037;-80
2023/10/25 09:36:23;;;;;;;11.18;2.20;;;18.40;99.90;;;;;;5075543;28;20024;-82
2023/10/25 09:38:50;;;;;;;9.15;2.35;;;18.40;99.90;;;;;;5075432;28;20048;-82
2023/10/25 09:41:17;;;;;;;6.85;2.20;;;18.40;99.90;;;;;;5057644;28;20035;-82
2023/10/25 09:43:47;;;;;;;9.95;2.28;;;18.50;99.90;;;;;;5075358;28;20042;-82
2023/10/25 09:46:20;;;;;;;7.63;2.10;;;18.50;99.90;;;;;;5075522;28;20474;-81
2023/10/25 09:49:04;;;;;;;9.40;2.58;;;18.50;99.90;;;;;;5075330;28;20013;-81
2023/10/25 09:51:30;;;;;;;7.22;1.75;;;18.60;99.90;;;;;;5075764;28;20498;-81
2023/10/25 09:54:12;;;;;;;10.10;1.65;;;18.50;99.90;;;;;;5078831;28;20028;-82
2023/10/25 09:56:39;;;;;;;6.22;1.73;;;18.50;99.90;;;;;;5076655;28;20025;-81
2023/10/25 09:59:12;;;;;;;5.32;1.88;;;18.60;99.90;;;;;;5056310;28;20028;-81
2023/10/25 10:01:39;;;;;;;9.77;2.55;;;18.50;99.90;;;;;;5074901;28;20020;-82
2023/10/25 10:04:17;;;;;;;9.48;2.25;;;18.60;99.90;;;;;;5074866;28;20033;-81
2023/10/25 10:07:21;;;;;;;11.20;2.60;;;18.60;99.90;;;;;;5074629;28;20013;-80
2023/10/25 10:09:54;;;;;;;10.98;2.97;;;18.60;99.90;;;;;;5073267;28;20117;-81
2023/10/25 10:12:23;;;;;;;4.70;1.70;;;18.70;99.90;;;;;;5074871;28;20021;-83
2023/10/25 10:14:52;;;;;;;7.82;1.98;;;18.70;99.90;;;;;;5074333;28;20047;-81
2023/10/25 10:17:18;;;;;;;7.30;1.90;;;18.60;99.90;;;;;;5074511;28;20027;-83
2023/10/25 10:19:47;;;;;;;6.00;2.28;;;18.60;99.90;;;;;;5074804;28;20074;-80
2023/10/25 10:22:14;;;;;;;7.75;1.65;;;18.60;99.90;;;;;;5074370;28;20482;-80
2023/10/25 10:24:48;;;;;;;9.18;2.20;;;18.60;99.90;;;;;;5070946;28;20036;-78
2023/10/25 10:27:27;;;;;;;8.82;1.77;;;18.60;99.90;;;;;;5074489;28;20021;-79
2023/10/25 10:29:53;;;;;;;8.70;2.10;;;18.60;99.90;;;;;;5074409;28;20417;-80
2023/10/25 10:32:19;;;;;;;6.75;1.60;;;18.60;99.90;;;;;;5074341;28;20392;-79
2023/10/25 10:34:53;;;;;;;8.60;2.10;;;18.60;99.90;;;;;;5074187;28;20048;-79
2023/10/25 10:37:24;;;;;;;5.57;1.63;;;18.60;99.90;;;;;;5074261;28;20024;-79
2023/10/25 10:39:56;;;;;;;6.97;2.10;;;18.60;99.90;;;;;;5074337;28;20112;-88
2023/10/25 10:42:30;;;;;;;6.10;1.88;;;18.60;99.90;;;;;;5074563;28;20263;-87
2023/10/25 10:44:58;;;;;;;6.03;1.90;;;18.50;99.90;;;;;;5074614;28;20103;-86
2023/10/25 10:47:39;;;;;;;9.93;2.17;;;18.50;99.90;;;;;;5056395;28;20039;-84
2023/10/25 10:50:10;;;;;;;4.68;1.88;;;18.50;99.90;;;;;;5074195;28;20016;-85
2023/10/25 10:52:36;;;;;;;7.35;1.80;;;18.50;99.90;;;;;;5074275;28;20016;-86
2023/10/25 10:55:02;;;;;;;5.82;1.83;;;18.50;99.90;;;;;;5073668;28;20025;-84
2023/10/25 10:57:28;;;;;;;5.38;1.60;;;18.50;99.80;;;;;;5073400;28;20029;-83
2023/10/25 10:59:55;;;;;;;7.05;1.63;;;18.50;99.70;;;;;;5072466;28;20083;-84
2023/10/25 11:02:25;;;;;;;5.45;1.60;;;18.50;99.50;;;;;;5054651;28;20056;-85
2023/10/25 11:04:51;;;;;;;6.95;1.73;;;18.60;99.30;;;;;;5074385;28;20082;-86
2023/10/25 11:07:20;;;;;;;6.25;1.67;;;18.50;99.30;;;;;;5073956;28;20020;-84
2023/10/25 11:09:45;;;;;;;7.90;1.90;;;18.50;99.30;;;;;;5073892;28;20082;-86
2023/10/25 11:12:14;;;;;;;7.05;1.52;;;18.50;99.30;;;;;;5074260;28;20048;-88
2023/10/25 11:14:45;;;;;;;5.03;1.35;;;18.50;99.40;;;;;;5074036;28;20036;-86
2023/10/25 11:17:12;;;;;;;5.55;1.92;;;18.50;99.20;;;;;;5056040;28;20021;-87
2023/10/25 11:19:38;;;;;;;6.85;1.52;;;18.50;99.20;;;;;;5056056;28;20028;-87
2023/10/25 11:22:04;;;;;;;6.18;1.80;;;18.50;99.20;;;;;;5074442;28;20108;-89
2023/10/25 11:24:33;;;;;;;6.10;1.85;;;18.50;99.10;;;;;;5075436;28;20128;-88
2023/10/25 11:27:00;;;;;;;7.28;1.52;;;18.50;99.00;;;;;;5056695;28;20090;-89
2023/10/25 11:29:26;;;;;;;11.93;1.60;;;18.50;99.10;;;;;;5074015;28;20056;-90
2023/10/25 11:31:58;;;;;;;6.88;1.45;;;18.50;99.20;;;;;;5074897;28;20059;-90
2023/10/25 11:34:23;;;;;;;8.18;2.22;;;18.50;99.30;;;;;;5074278;28;20369;-88
2023/10/25 11:36:50;;;;;;;5.65;1.73;;;18.50;99.30;;;;;;5055957;28;20032;-88
2023/10/25 11:39:16;;;;;;;6.93;1.92;;;18.50;99.30;;;;;;5073749;28;20469;-88
2023/10/25 11:41:45;;;;;;;5.70;1.65;;;18.50;99.30;;;;;;5074217;28;20027;-88
2023/10/25 11:44:11;;;;;;;6.70;1.70;;;18.50;99.40;;;;;;5073851;28;20418;-88
2023/10/25 11:46:44;;;;;;;6.15;2.60;;;18.50;99.50;;;;;;5074030;28;20028;-89
2023/10/25 11:49:10;;;;;;;7.00;1.90;;;18.50;99.60;;;;;;5074293;28;20046;-89
2023/10/25 11:51:36;;;;;;;9.10;2.03;;;18.50;99.70;;;;;;5074142;28;20028;-88
2023/10/25 11:54:04;;;;;;;10.10;3.20;;;18.50;99.80;;;;;;5056480;28;20016;-88
2023/10/25 11:56:33;;;;;;;7.00;2.08;;;18.50;99.90;;;;;;5073097;28;20024;-75
2023/10/25 11:58:59;;;;;;;7.30;1.98;;;18.50;99.90;;;;;;5072783;28;20021;-74
2023/10/25 12:01:39;;;;;;;8.23;2.00;;;18.50;99.90;;;;;;5072854;28;20077;-75
2023/10/25 12:04:06;;;;;;;8.88;2.10;;;18.50;99.90;;;;;;5073011;28;20032;-75
2023/10/25 12:06:32;;;;;;;7.07;1.95;;;18.60;99.80;;;;;;5072926;28;20349;-75
2023/10/25 12:09:01;;;;;;;8.35;2.17;;;18.50;99.80;;;;;;5072581;28;20376;-75
2023/10/25 12:11:27;;;;;;;8.73;2.20;;;18.50;99.80;;;;;;5072743;28;20384;-75
2023/10/25 12:13:53;;;;;;;6.72;1.80;;;18.60;99.90;;;;;;5075558;28;20434;-74
2023/10/25 12:16:19;;;;;;;10.75;2.28;;;18.60;99.90;;;;;;5076675;28;20392;-75
2023/10/25 12:18:45;;;;;;;9.00;2.50;;;18.60;99.90;;;;;;5076706;28;20477;-74
2023/10/25 12:21:11;;;;;;;10.02;2.25;;;18.60;99.90;;;;;;5077025;28;20028;-75
2023/10/25 12:23:37;;;;;;;7.35;2.20;;;18.60;99.90;;;;;;5063238;28;20412;-75
2023/10/25 12:26:03;;;;;;;8.02;2.08;;;18.60;99.90;;;;;;5067776;28;20028;-75
2023/10/25 12:28:29;;;;;;;10.82;2.90;;;18.60;99.90;;;;;;5071523;28;20106;-76
2023/10/25 12:31:03;;;;;;;9.32;2.42;;;18.60;99.90;;;;;;5056693;28;20438;-74
2023/10/25 12:33:29;;;;;;;7.18;1.88;;;18.60;99.90;;;;;;5056349;28;20048;-77
2023/10/25 12:35:55;;;;;;;6.82;2.35;;;18.60;99.90;;;;;;5056447;28;20045;-78
2023/10/25 12:38:24;;;;;;;7.13;2.30;;;18.60;99.90;;;;;;5056720;28;20021;-78
2023/10/25 12:40:50;;;;;;;7.05;2.20;;;18.60;99.90;;;;;;5056500;28;20087;-78
2023/10/25 12:43:16;;;;;;;11.60;3.05;;;18.60;99.90;;;;;;5056721;28;20021;-77
2023/10/25 12:45:41;;;;;;;9.18;2.60;;;18.60;99.90;;;;;;5056002;28;20040;-76
2023/10/25 12:48:10;;;;;;;7.35;2.50;;;18.60;99.90;;;;;;5056195;28;20021;-77